Time;durP1;ratioP1;P1;durP2;ratioP2;P2;SDS_P1;SDS_P2;PMS_P1;PMS_P2;Temp;Humidity;BMP_temperature;BMP_pressure;BME280_temperature;BME280_humidity;BME280_pressure;Samples;Min_cycle;Max_cycle;Signal;HPM_P1;HPM_P2
2021/06/04 00:00:26;;;;;;;20.63;18.83;;;19.30;99.90;;;;;;5016244;28;20904;-61
2021/06/04 00:03:00;;;;;;;19.93;18.03;;;19.30;99.90;;;;;;5012181;28;20503;-61
2021/06/04 00:05:35;;;;;;;19.40;17.70;;;19.20;99.90;;;;;;5012790;28;20472;-61
2021/06/04 00:08:01;;;;;;;19.10;17.37;;;19.20;99.90;;;;;;5016605;28;20463;-61
2021/06/04 00:10:33;;;;;;;18.97;17.23;;;19.10;99.90;;;;;;5016546;28;20475;-61
2021/06/04 00:13:14;;;;;;;19.50;17.90;;;19.10;99.90;;;;;;5018871;28;20536;-61
2021/06/04 00:15:42;;;;;;;18.43;17.00;;;19.10;99.90;;;;;;5019779;28;20923;-61
2021/06/04 00:18:09;;;;;;;18.00;16.40;;;19.00;99.90;;;;;;5020422;28;20468;-61
2021/06/04 00:20:36;;;;;;;19.03;17.30;;;19.00;99.90;;;;;;5020461;28;20836;-61
2021/06/04 00:23:02;;;;;;;20.13;17.17;;;19.00;99.90;;;;;;5019463;28;20594;-61
2021/06/04 00:25:29;;;;;;;19.37;17.67;;;19.00;99.90;;;;;;5019704;28;20467;-61
2021/06/04 00:27:56;;;;;;;19.87;18.03;;;19.00;99.90;;;;;;5020095;28;20471;-61
2021/06/04 00:30:23;;;;;;;19.00;17.40;;;19.00;99.90;;;;;;5018871;28;20857;-61
2021/06/04 00:32:52;;;;;;;19.60;17.70;;;18.90;99.90;;;;;;5019530;28;20899;-61
2021/06/04 00:35:18;;;;;;;20.73;18.93;;;18.90;99.90;;;;;;5019746;28;20916;-61
2021/06/04 00:37:45;;;;;;;19.23;17.63;;;18.90;99.90;;;;;;5019966;28;20816;-61
2021/06/04 00:40:18;;;;;;;21.03;18.93;;;18.90;99.90;;;;;;5019750;28;20784;-61
2021/06/04 00:42:45;;;;;;;19.73;18.07;;;18.90;99.90;;;;;;5019832;28;20499;-61
2021/06/04 00:45:21;;;;;;;21.13;19.13;;;18.80;99.90;;;;;;5019156;28;20479;-61
2021/06/04 00:47:48;;;;;;;20.60;18.73;;;18.90;99.90;;;;;;5019989;28;20472;-61
2021/06/04 00:50:22;;;;;;;20.17;18.43;;;18.90;99.90;;;;;;5019887;28;20507;-61
2021/06/04 00:52:48;;;;;;;21.33;19.50;;;18.90;99.90;;;;;;5019275;28;20458;-61
2021/06/04 00:55:21;;;;;;;19.47;17.77;;;19.00;99.90;;;;;;5012666;28;20479;-61
2021/06/04 00:57:49;;;;;;;19.87;18.23;;;18.90;99.90;;;;;;5013716;28;20558;-61
2021/06/04 01:00:24;;;;;;;20.23;18.57;;;19.00;99.90;;;;;;5018679;28;20487;-61
2021/06/04 01:02:52;;;;;;;21.40;19.43;;;19.00;99.90;;;;;;5019523;28;20896;-61
2021/06/04 01:05:20;;;;;;;19.10;17.40;;;19.00;99.90;;;;;;5012945;28;20561;-61
2021/06/04 01:08:03;;;;;;;19.90;18.00;;;18.90;99.90;;;;;;5016406;28;20471;-61
2021/06/04 01:10:42;;;;;;;21.00;19.00;;;18.90;99.90;;;;;;5003628;28;20453;-61
2021/06/04 01:13:18;;;;;;;16.90;15.40;;;18.90;99.90;;;;;;5019407;28;20470;-61
2021/06/04 01:16:05;;;;;;;17.40;15.60;;;18.90;99.90;;;;;;5018786;28;20468;-61
2021/06/04 01:18:46;;;;;;;15.33;14.03;;;18.90;99.90;;;;;;5019483;28;20515;-61
2021/06/04 01:21:20;;;;;;;17.03;15.60;;;18.90;99.90;;;;;;5018976;28;20471;-61
2021/06/04 01:23:59;;;;;;;17.47;15.90;;;18.90;99.90;;;;;;5018299;28;20491;-61
2021/06/04 01:26:30;;;;;;;17.27;15.77;;;18.90;99.90;;;;;;5019480;28;20471;-61
2021/06/04 01:29:04;;;;;;;16.13;14.83;;;18.80;99.90;;;;;;5019305;28;20761;-61
2021/06/04 01:31:35;;;;;;;15.97;14.47;;;18.80;99.90;;;;;;5019027;28;20467;-61
2021/06/04 01:34:06;;;;;;;15.30;13.70;;;18.70;99.90;;;;;;5019254;28;20782;-61
2021/06/04 01:36:38;;;;;;;16.10;14.70;;;18.80;99.90;;;;;;5018722;28;20460;-61
2021/06/04 01:39:09;;;;;;;14.90;13.50;;;18.80;99.90;;;;;;5018823;28;20522;-61
2021/06/04 01:41:38;;;;;;;16.30;15.00;;;18.80;99.90;;;;;;5018331;28;20484;-61
2021/06/04 01:44:10;;;;;;;16.03;14.63;;;18.80;99.90;;;;;;5018324;28;20464;-61
2021/06/04 01:46:40;;;;;;;15.63;14.23;;;18.80;99.90;;;;;;5019159;28;20554;-61
2021/06/04 01:49:10;;;;;;;15.57;14.27;;;18.70;99.90;;;;;;5018775;28;20523;-61
2021/06/04 01:51:40;;;;;;;15.13;13.93;;;18.70;99.90;;;;;;5018310;28;20464;-62
2021/06/04 01:54:13;;;;;;;13.80;12.50;;;18.70;99.90;;;;;;5019053;28;20551;-61
2021/06/04 01:56:44;;;;;;;13.47;12.30;;;18.70;99.90;;;;;;5018684;28;20467;-62
2021/06/04 01:59:16;;;;;;;14.40;13.00;;;18.70;99.90;;;;;;5018386;28;20475;-62
2021/06/04 02:01:45;;;;;;;14.43;13.33;;;18.70;99.90;;;;;;5018157;28;20467;-62
2021/06/04 02:04:16;;;;;;;13.10;11.90;;;18.70;99.90;;;;;;5009493;28;20916;-62
2021/06/04 02:06:44;;;;;;;14.40;13.00;;;18.70;99.90;;;;;;5018469;28;20475;-62
2021/06/04 02:09:13;;;;;;;14.83;13.20;;;18.60;99.90;;;;;;5018106;28;20475;-62
2021/06/04 02:11:42;;;;;;;13.50;12.47;;;18.60;99.90;;;;;;5018527;28;20808;-62
2021/06/04 02:14:14;;;;;;;14.50;13.30;;;18.60;99.90;;;;;;5017888;28;20471;-62
2021/06/04 02:16:55;;;;;;;15.27;13.90;;;18.60;99.90;;;;;;5018897;28;20464;-62
2021/06/04 02:19:35;;;;;;;14.03;12.70;;;18.50;99.90;;;;;;5018348;28;20459;-61
2021/06/04 02:22:09;;;;;;;13.40;12.20;;;18.50;99.90;;;;;;5018151;28;20936;-61
2021/06/04 02:24:41;;;;;;;15.43;13.47;;;18.40;99.90;;;;;;5017948;28;20534;-61
2021/06/04 02:27:15;;;;;;;13.80;12.43;;;18.50;99.90;;;;;;5017649;28;20779;-62
2021/06/04 02:29:48;;;;;;;14.03;12.83;;;18.50;99.90;;;;;;5017948;28;20784;-62
2021/06/04 02:32:21;;;;;;;13.97;12.87;;;18.50;99.90;;;;;;5018403;28;20545;-62
2021/06/04 02:34:52;;;;;;;16.20;13.40;;;18.40;99.90;;;;;;5017900;28;20463;-62
2021/06/04 02:37:22;;;;;;;14.57;13.37;;;18.40;99.90;;;;;;5017744;28;20787;-62
2021/06/04 02:39:53;;;;;;;14.93;13.43;;;18.40;99.90;;;;;;5017336;28;20921;-62
2021/06/04 02:42:25;;;;;;;15.13;13.87;;;18.40;99.90;;;;;;5017971;28;20496;-62
2021/06/04 02:44:54;;;;;;;14.30;13.00;;;18.40;99.90;;;;;;5017466;28;20883;-62
2021/06/04 02:47:24;;;;;;;14.00;12.70;;;18.40;99.90;;;;;;5018544;28;20468;-61
2021/06/04 02:49:51;;;;;;;13.87;12.77;;;18.40;99.90;;;;;;5017868;28;20893;-61
2021/06/04 02:52:32;;;;;;;15.13;13.93;;;18.40;99.90;;;;;;5018177;28;20456;-60
2021/06/04 02:55:01;;;;;;;14.00;12.90;;;18.40;99.90;;;;;;5017664;28;20893;-61
2021/06/04 02:57:31;;;;;;;15.30;14.00;;;18.30;99.90;;;;;;5017351;28;20463;-61
2021/06/04 02:59:58;;;;;;;14.03;12.83;;;18.40;99.90;;;;;;5017681;28;20439;-61
2021/06/04 03:02:29;;;;;;;13.93;12.87;;;18.30;99.90;;;;;;5015911;28;20491;-61
2021/06/04 03:04:58;;;;;;;13.83;12.63;;;18.30;99.90;;;;;;5011976;28;20447;-61
2021/06/04 03:07:29;;;;;;;14.20;13.00;;;18.40;99.90;;;;;;5017493;28;20477;-61
2021/06/04 03:09:58;;;;;;;14.33;13.17;;;18.30;99.90;;;;;;5017318;28;20468;-61
2021/06/04 03:12:29;;;;;;;14.20;13.10;;;18.30;99.90;;;;;;5017476;28;20460;-61
2021/06/04 03:14:58;;;;;;;14.03;12.93;;;18.30;99.90;;;;;;5017014;28;20467;-61
2021/06/04 03:17:29;;;;;;;13.47;12.30;;;18.20;99.90;;;;;;5017069;28;20467;-61
2021/06/04 03:19:56;;;;;;;14.23;13.13;;;18.20;99.90;;;;;;5017555;28;20468;-61
2021/06/04 03:22:29;;;;;;;15.03;13.70;;;18.20;99.90;;;;;;5017045;28;20507;-61
2021/06/04 03:24:58;;;;;;;15.57;13.20;;;18.20;99.90;;;;;;5016846;28;20526;-61
2021/06/04 03:27:25;;;;;;;15.30;14.10;;;18.20;99.90;;;;;;5017233;28;20468;-61
2021/06/04 03:29:53;;;;;;;15.30;14.00;;;18.20;99.90;;;;;;5016834;28;20438;-61
2021/06/04 03:32:20;;;;;;;15.83;14.47;;;18.20;99.90;;;;;;5017842;28;20460;-61
2021/06/04 03:34:48;;;;;;;16.40;15.00;;;18.20;99.90;;;;;;5017041;28;20507;-60
2021/06/04 03:37:18;;;;;;;17.23;15.70;;;18.20;99.90;;;;;;5017279;28;20471;-61
2021/06/04 03:39:46;;;;;;;16.57;15.23;;;18.10;99.90;;;;;;5016591;28;20438;-61
2021/06/04 03:42:17;;;;;;;14.33;13.13;;;18.20;99.90;;;;;;5017437;28;20496;-61
2021/06/04 03:44:45;;;;;;;17.23;15.67;;;18.20;99.90;;;;;;5016945;28;20464;-61
2021/06/04 03:47:13;;;;;;;16.23;14.93;;;18.20;99.90;;;;;;5018323;28;20468;-61
2021/06/04 03:49:41;;;;;;;15.73;14.40;;;18.20;99.90;;;;;;5020961;28;20459;-61
2021/06/04 03:52:10;;;;;;;14.83;13.50;;;18.30;99.90;;;;;;5021390;28;20471;-61
2021/06/04 03:54:44;;;;;;;14.03;12.53;;;18.30;99.90;;;;;;5021385;28;20451;-61
2021/06/04 03:57:15;;;;;;;14.63;13.13;;;18.20;99.90;;;;;;5021326;28;20459;-60
2021/06/04 03:59:43;;;;;;;15.07;13.77;;;18.30;99.90;;;;;;5020957;28;20463;-60
2021/06/04 04:02:15;;;;;;;15.40;14.20;;;18.30;99.90;;;;;;5021113;28;20488;-61
2021/06/04 04:04:43;;;;;;;14.70;13.50;;;18.30;99.90;;;;;;5011948;28;20463;-61
2021/06/04 04:07:12;;;;;;;15.43;14.13;;;18.30;99.90;;;;;;5020091;28;20456;-60
2021/06/04 04:09:40;;;;;;;15.63;14.43;;;18.30;99.90;;;;;;5020472;28;20935;-61
2021/06/04 04:12:08;;;;;;;16.90;15.57;;;18.30;99.90;;;;;;5021003;28;20464;-61
2021/06/04 04:14:35;;;;;;;15.07;13.87;;;18.30;99.90;;;;;;5020675;28;20562;-61
2021/06/04 04:17:05;;;;;;;16.03;14.80;;;18.40;99.90;;;;;;5020629;28;20471;-61
2021/06/04 04:19:32;;;;;;;16.57;15.27;;;18.40;99.90;;;;;;5020087;28;20466;-61
2021/06/04 04:22:00;;;;;;;16.10;14.70;;;18.40;99.90;;;;;;5020391;28;20455;-61
2021/06/04 04:24:29;;;;;;;15.83;14.53;;;18.40;99.90;;;;;;5020636;28;20435;-61
2021/06/04 04:27:00;;;;;;;15.53;14.33;;;18.50;99.90;;;;;;5020216;28;20463;-61
2021/06/04 04:29:27;;;;;;;14.30;13.00;;;18.50;99.90;;;;;;5020465;28;20468;-61
2021/06/04 04:31:56;;;;;;;15.17;13.97;;;18.60;99.90;;;;;;5020480;28;20467;-61
2021/06/04 04:34:25;;;;;;;16.63;14.93;;;18.60;99.90;;;;;;5020671;28;20471;-61
2021/06/04 04:36:54;;;;;;;13.77;12.77;;;18.60;99.90;;;;;;5020005;28;20468;-61
2021/06/04 04:39:24;;;;;;;14.93;13.73;;;18.70;99.90;;;;;;5019777;28;20550;-60
2021/06/04 04:41:52;;;;;;;14.40;13.30;;;18.70;99.90;;;;;;5019771;28;20487;-61
2021/06/04 04:44:23;;;;;;;15.97;14.60;;;18.70;99.90;;;;;;5020387;28;20471;-60
2021/06/04 04:46:50;;;;;;;15.33;14.13;;;18.70;99.90;;;;;;5019818;28;20463;-61
2021/06/04 04:49:17;;;;;;;15.80;14.40;;;18.70;99.90;;;;;;5019187;28;20460;-61
2021/06/04 04:51:44;;;;;;;15.90;14.50;;;18.80;99.90;;;;;;5019461;28;20522;-60
2021/06/04 04:54:10;;;;;;;15.70;14.50;;;18.80;99.90;;;;;;5020321;28;20773;-60
2021/06/04 04:56:42;;;;;;;16.93;14.53;;;18.80;99.90;;;;;;5019570;28;20759;-61
2021/06/04 04:59:10;;;;;;;14.40;13.40;;;18.90;99.90;;;;;;5019201;28;20485;-60
2021/06/04 05:01:38;;;;;;;15.90;14.53;;;19.00;99.90;;;;;;5019768;28;20464;-60
2021/06/04 05:04:07;;;;;;;15.40;14.03;;;19.00;99.90;;;;;;5010310;28;20496;-61
2021/06/04 05:06:35;;;;;;;14.47;13.33;;;19.00;99.90;;;;;;5018456;28;20460;-61
2021/06/04 05:09:04;;;;;;;14.83;13.53;;;19.10;99.90;;;;;;5018984;28;20519;-61
2021/06/04 05:11:30;;;;;;;14.47;13.17;;;19.20;99.90;;;;;;5019459;28;20905;-61
2021/06/04 05:13:59;;;;;;;14.70;13.50;;;19.30;99.90;;;;;;5019323;28;20463;-62
2021/06/04 05:16:25;;;;;;;15.40;14.20;;;19.30;99.90;;;;;;5019236;28;20472;-62
2021/06/04 05:18:52;;;;;;;14.73;13.53;;;19.30;99.90;;;;;;5019806;28;20526;-62
2021/06/04 05:21:19;;;;;;;15.47;14.17;;;19.50;99.90;;;;;;5018914;28;20517;-62
2021/06/04 05:23:46;;;;;;;15.23;13.80;;;19.50;99.90;;;;;;5019619;28;20500;-62
2021/06/04 05:26:14;;;;;;;15.83;14.53;;;19.50;99.90;;;;;;5019407;28;20468;-62
2021/06/04 05:28:43;;;;;;;16.17;14.70;;;19.60;99.90;;;;;;5019589;28;20492;-62
2021/06/04 05:31:16;;;;;;;17.97;16.57;;;19.60;99.90;;;;;;5019648;28;20745;-62
2021/06/04 05:33:46;;;;;;;18.10;16.50;;;19.70;99.90;;;;;;5019982;28;20904;-62
2021/06/04 05:36:15;;;;;;;17.47;15.97;;;19.70;99.90;;;;;;5020041;28;20471;-62
2021/06/04 05:38:43;;;;;;;18.33;16.73;;;19.90;99.90;;;;;;5018946;28;20456;-62
2021/06/04 05:41:12;;;;;;;18.07;16.47;;;19.90;99.90;;;;;;5018434;28;20550;-62
2021/06/04 05:43:41;;;;;;;19.47;17.83;;;19.90;99.90;;;;;;5019153;28;20477;-62
2021/06/04 05:46:12;;;;;;;20.63;18.67;;;19.90;99.90;;;;;;5019084;28;20756;-62
2021/06/04 05:48:38;;;;;;;19.90;18.20;;;20.00;99.90;;;;;;5019171;28;20460;-62
2021/06/04 05:51:09;;;;;;;20.73;18.97;;;20.10;99.90;;;;;;5018378;28;20472;-62
2021/06/04 05:53:38;;;;;;;21.50;19.37;;;20.10;99.90;;;;;;5018747;28;20463;-62
2021/06/04 05:56:06;;;;;;;20.60;18.97;;;20.00;99.90;;;;;;5019094;28;20482;-63
2021/06/04 05:58:33;;;;;;;20.27;18.57;;;20.20;99.90;;;;;;5018460;28;20452;-63
2021/06/04 06:01:04;;;;;;;19.90;18.17;;;20.30;99.90;;;;;;5018968;28;20456;-63
2021/06/04 06:03:34;;;;;;;19.83;17.73;;;20.50;99.90;;;;;;5012389;28;20491;-63
2021/06/04 06:06:01;;;;;;;19.40;17.63;;;20.60;99.90;;;;;;5015798;28;20476;-63
2021/06/04 06:08:31;;;;;;;20.03;18.23;;;20.70;99.90;;;;;;5018205;28;20444;-63
2021/06/04 06:10:57;;;;;;;18.90;17.30;;;20.90;99.90;;;;;;5018540;28;20770;-63
2021/06/04 06:13:25;;;;;;;19.63;17.90;;;21.00;99.90;;;;;;5018431;28;20491;-62
2021/06/04 06:15:53;;;;;;;18.20;16.50;;;21.20;99.90;;;;;;5018438;28;20500;-62
2021/06/04 06:18:20;;;;;;;16.00;14.60;;;21.50;99.90;;;;;;5018024;28;20464;-62
2021/06/04 06:20:49;;;;;;;17.77;16.07;;;21.60;99.90;;;;;;5018362;28;20978;-61
2021/06/04 06:23:25;;;;;;;16.70;15.27;;;21.80;99.90;;;;;;4998264;28;20500;-61
2021/06/04 06:25:55;;;;;;;17.70;16.10;;;21.70;99.90;;;;;;4998614;28;20476;-61
2021/06/04 06:28:25;;;;;;;16.53;15.23;;;21.90;99.90;;;;;;4998446;28;20464;-60
2021/06/04 06:30:52;;;;;;;17.40;15.90;;;22.00;99.90;;;;;;4998774;28;20476;-60
2021/06/04 06:33:21;;;;;;;18.23;16.73;;;22.30;99.90;;;;;;4998115;28;20461;-58
2021/06/04 06:35:52;;;;;;;18.10;16.30;;;22.70;1.00;;;;;;4998526;28;20902;-59
2021/06/04 06:38:19;;;;;;;17.67;15.97;;;23.10;99.90;;;;;;5002900;28;20456;-59
2021/06/04 06:40:47;;;;;;;17.17;15.57;;;23.30;1.00;;;;;;5017935;28;20491;-56
2021/06/04 06:43:14;;;;;;;18.30;16.80;;;23.30;99.90;;;;;;5017799;28;20492;-59
2021/06/04 06:45:41;;;;;;;16.83;15.33;;;23.40;1.00;;;;;;5017195;28;20471;-57
2021/06/04 06:48:10;;;;;;;16.93;15.33;;;23.30;99.90;;;;;;5017876;28;20464;-58
2021/06/04 06:50:41;;;;;;;18.00;16.50;;;23.40;1.00;;;;;;5017616;28;20464;-57
2021/06/04 06:53:14;;;;;;;19.63;17.93;;;23.30;35.30;;;;;;5017555;28;20464;-53
2021/06/04 06:55:43;;;;;;;20.20;18.30;;;23.30;99.90;;;;;;5017915;28;20820;-55
2021/06/04 06:58:11;;;;;;;20.53;18.90;;;23.30;1.00;;;;;;5018230;28;20815;-55
2021/06/04 07:00:42;;;;;;;21.00;19.10;;;23.20;1.00;;;;;;5017975;28;20540;-58
2021/06/04 07:03:10;;;;;;;20.70;18.83;;;23.30;1.00;;;;;;5011138;28;20515;-58
2021/06/04 07:05:42;;;;;;;20.83;18.80;;;23.30;99.90;;;;;;5014485;28;20480;-56
2021/06/04 07:08:11;;;;;;;22.53;20.63;;;23.40;1.00;;;;;;5017425;28;20543;-55
2021/06/04 07:10:41;;;;;;;22.90;20.90;;;23.30;1.00;;;;;;5017644;28;20486;-55
2021/06/04 07:13:13;;;;;;;22.17;19.97;;;23.50;99.90;;;;;;5017153;28;20456;-54
2021/06/04 07:15:41;;;;;;;23.23;21.13;;;23.70;1.00;;;;;;5017502;28;20470;-52
2021/06/04 07:18:08;;;;;;;23.53;21.43;;;23.90;33.40;;;;;;5017805;28;20861;-51
2021/06/04 07:20:37;;;;;;;22.90;20.80;;;24.10;99.90;;;;;;5018095;28;20500;-57
2021/06/04 07:23:06;;;;;;;23.20;20.97;;;24.20;1.00;;;;;;5020590;28;20500;-56
2021/06/04 07:25:37;;;;;;;24.20;22.20;;;24.40;99.90;;;;;;5021257;28;20979;-57
2021/06/04 07:28:05;;;;;;;24.93;22.37;;;24.20;1.00;;;;;;5019831;28;20471;-56
2021/06/04 07:30:44;;;;;;;25.90;23.50;;;24.40;99.90;;;;;;5018331;28;20471;-55
2021/06/04 07:33:14;;;;;;;27.60;25.10;;;24.20;20.80;;;;;;5025859;28;20460;-47
2021/06/04 07:35:41;;;;;;;26.30;23.90;;;23.90;99.90;;;;;;5026995;28;20741;-49
2021/06/04 07:38:11;;;;;;;27.33;24.37;;;23.50;99.90;;;;;;5027429;28;20460;-51
2021/06/04 07:40:42;;;;;;;24.23;22.00;;;23.50;99.90;;;;;;5019828;28;20789;-52
2021/06/04 07:43:11;;;;;;;23.83;21.30;;;23.80;74.50;;;;;;5021903;28;20591;-51
2021/06/04 07:45:40;;;;;;;25.23;23.07;;;23.80;76.50;;;;;;5017436;28;20475;-49
2021/06/04 07:48:12;;;;;;;27.13;24.53;;;24.30;99.90;;;;;;5016889;28;20464;-50
2021/06/04 07:50:40;;;;;;;25.07;22.67;;;24.80;99.90;;;;;;5018991;28;20606;-48
2021/06/04 07:53:06;;;;;;;29.40;26.60;;;25.00;99.90;;;;;;5017475;28;20468;-53
2021/06/04 07:55:36;;;;;;;35.83;25.67;;;25.10;1.00;;;;;;5018477;28;20465;-50
2021/06/04 07:58:08;;;;;;;27.93;25.37;;;24.80;1.00;;;;;;5018343;28;20491;-50
2021/06/04 08:00:38;;;;;;;29.10;26.53;;;25.20;1.00;;;;;;5019571;28;20464;-53
2021/06/04 08:03:06;;;;;;;28.50;26.00;;;25.20;1.00;;;;;;5012324;28;20507;-55
2021/06/04 08:05:35;;;;;;;28.13;25.23;;;24.90;99.90;;;;;;5017593;28;20530;-49
2021/06/04 08:08:02;;;;;;;26.50;24.30;;;24.90;99.90;;;;;;5016364;28;20463;-53
2021/06/04 08:10:31;;;;;;;25.87;23.67;;;25.20;99.90;;;;;;5018228;28;20472;-48
2021/06/04 08:13:00;;;;;;;26.47;24.40;;;25.00;1.00;;;;;;5017299;28;20775;-48
2021/06/04 08:15:31;;;;;;;24.60;22.50;;;25.90;99.90;;;;;;5017648;28;20475;-51
2021/06/04 08:17:59;;;;;;;23.53;21.07;;;25.80;99.90;;;;;;5016631;28;20460;-47
2021/06/04 08:20:31;;;;;;;23.97;21.90;;;26.10;99.90;;;;;;5017071;28;20463;-48
2021/06/04 08:22:59;;;;;;;25.53;23.33;;;25.50;99.90;;;;;;5016859;28;20498;-48
2021/06/04 08:25:31;;;;;;;25.00;23.00;;;25.40;99.90;;;;;;5017050;28;20479;-47
2021/06/04 08:27:58;;;;;;;25.60;23.20;;;24.60;99.90;;;;;;5016974;28;20517;-49
2021/06/04 08:30:26;;;;;;;26.23;23.80;;;25.20;1.00;;;;;;5017030;28;20749;-52
2021/06/04 08:32:54;;;;;;;24.37;22.27;;;26.20;99.90;;;;;;5016249;28;20464;-56
2021/06/04 08:35:24;;;;;;;23.50;21.30;;;26.40;1.00;;;;;;5019801;28;20468;-54
2021/06/04 08:37:52;;;;;;;24.67;22.47;;;26.40;1.00;;;;;;5021010;28;20463;-51
2021/06/04 08:40:26;;;;;;;24.43;22.37;;;26.00;16.30;;;;;;5020577;28;20809;-51
2021/06/04 08:43:09;;;;;;;27.07;24.77;;;25.50;99.90;;;;;;5021361;28;20495;-49
2021/06/04 08:45:39;;;;;;;24.50;22.17;;;25.40;95.30;;;;;;5020554;28;20472;-47
2021/06/04 08:48:22;;;;;;;24.33;21.93;;;24.90;63.20;;;;;;5020952;28;20471;-50
2021/06/04 08:51:02;;;;;;;26.10;23.60;;;25.10;99.90;;;;;;5020415;28;20885;-46
2021/06/04 08:53:37;;;;;;;24.10;22.20;;;25.30;99.90;;;;;;5021151;28;20503;-47
2021/06/04 08:56:09;;;;;;;26.43;24.13;;;25.60;40.30;;;;;;5020187;28;20460;-51
2021/06/04 08:58:54;;;;;;;24.60;22.23;;;25.60;15.50;;;;;;5020962;28;20522;-47
2021/06/04 09:01:26;;;;;;;25.50;23.20;;;25.60;18.90;;;;;;5021221;28;20887;-47
2021/06/04 09:04:04;;;;;;;22.83;20.53;;;26.10;1.00;;;;;;5013696;28;20675;-47
2021/06/04 09:06:40;;;;;;;22.73;20.53;;;26.80;1.00;;;;;;5023047;28;20876;-48
2021/06/04 09:09:15;;;;;;;21.00;19.30;;;27.60;1.00;;;;;;5021463;28;20464;-47
2021/06/04 09:11:43;;;;;;;22.23;20.07;;;26.70;1.00;;;;;;5020848;28;20872;-48
2021/06/04 09:14:09;;;;;;;22.07;20.20;;;26.40;1.00;;;;;;5019448;28;20463;-50
2021/06/04 09:16:49;;;;;;;21.67;19.77;;;25.90;1.00;;;;;;5020048;28;20816;-55
2021/06/04 09:19:24;;;;;;;21.23;19.43;;;25.70;1.00;;;;;;5022313;28;20495;-47
2021/06/04 09:21:54;;;;;;;23.47;21.13;;;25.20;1.00;;;;;;5021229;28;20510;-51
2021/06/04 09:24:30;;;;;;;22.90;20.80;;;25.00;1.00;;;;;;5022636;28;20496;-50
2021/06/04 09:26:56;;;;;;;23.23;19.53;;;25.00;1.00;;;;;;5020825;28;20456;-52
2021/06/04 09:29:25;;;;;;;20.50;18.80;;;24.90;1.00;;;;;;5022839;28;20522;-48
2021/06/04 09:31:56;;;;;;;21.87;19.90;;;25.10;1.00;;;;;;5021470;28;20472;-52
2021/06/04 09:34:32;;;;;;;20.53;18.83;;;24.80;1.00;;;;;;5021730;28;20464;-49
2021/06/04 09:37:12;;;;;;;20.30;18.50;;;25.30;1.00;;;;;;5020470;28;20468;-47
2021/06/04 09:39:41;;;;;;;18.90;17.20;;;25.80;1.00;;;;;;5020429;28;20462;-46
2021/06/04 09:42:17;;;;;;;19.93;18.33;;;26.10;1.00;;;;;;5037090;28;20502;-46
2021/06/04 09:44:59;;;;;;;16.70;15.37;;;26.60;1.00;;;;;;5038934;28;20490;-47
2021/06/04 09:47:37;;;;;;;15.60;14.20;;;26.30;1.00;;;;;;5032486;28;20482;-50
2021/06/04 09:50:17;;;;;;;14.83;12.93;;;26.60;1.00;;;;;;5014877;28;20462;-47
2021/06/04 09:52:44;;;;;;;15.90;14.30;;;27.00;1.00;;;;;;5018732;28;20463;-50
2021/06/04 09:55:27;;;;;;;17.73;16.23;;;27.50;1.00;;;;;;5019394;28;20602;-49
2021/06/04 09:58:16;;;;;;;16.10;14.53;;;27.80;1.00;;;;;;5019339;28;20764;-50
2021/06/04 10:00:46;;;;;;;13.47;12.47;;;28.70;1.00;;;;;;5019242;28;20490;-53
2021/06/04 10:03:35;;;;;;;14.60;13.40;;;29.30;1.00;;;;;;5015099;28;20488;-50
2021/06/04 10:06:27;;;;;;;14.73;13.53;;;30.30;1.00;;;;;;5015610;28;20467;-51
2021/06/04 10:08:59;;;;;;;16.50;15.10;;;31.40;1.00;;;;;;5016460;28;20467;-51
2021/06/04 10:11:28;;;;;;;13.60;12.33;;;31.50;1.00;;;;;;5019438;28;20467;-47
2021/06/04 10:14:00;;;;;;;12.57;11.57;;;31.60;1.00;;;;;;5018172;28;20474;-54
2021/06/04 10:19:37;;;;;;;14.10;13.00;;;31.80;1.00;;;;;;4938702;29;20447;-48
2021/06/04 10:22:18;;;;;;;13.43;12.27;;;32.10;1.00;;;;;;4938606;29;20849;-48
2021/06/04 11:02:12;;;;;;;15.53;14.23;;;30.90;1.00;;;;;;4552153;23;20495;-46
2021/06/04 11:04:54;;;;;;;17.50;16.00;;;30.90;1.00;;;;;;5010403;28;20487;-50
2021/06/04 11:07:32;;;;;;;17.60;16.07;;;31.40;1.00;;;;;;5017006;28;20961;-53
2021/06/04 11:10:06;;;;;;;17.50;16.10;;;31.00;1.00;;;;;;5017503;28;20957;-49
2021/06/04 11:12:59;;;;;;;16.87;15.47;;;31.40;1.00;;;;;;5017663;28;20459;-52
2021/06/04 11:15:35;;;;;;;18.47;16.13;;;31.10;1.00;;;;;;5000218;28;20460;-46
2021/06/04 11:18:12;;;;;;;18.97;17.27;;;30.90;1.00;;;;;;5018046;28;20902;-51
2021/06/04 11:20:53;;;;;;;17.70;16.20;;;30.40;1.00;;;;;;5017827;28;20494;-49
2021/06/04 12:00:43;;;;;;;20.63;18.83;;;31.20;1.00;;;;;;4270019;22;20586;-52
2021/06/04 12:03:28;;;;;;;19.67;17.50;;;32.00;1.00;;;;;;5011810;28;20491;-51
2021/06/04 12:06:17;;;;;;;19.10;17.67;;;32.80;1.00;;;;;;5014195;28;20973;-49
2021/06/04 12:08:47;;;;;;;17.13;15.73;;;32.50;1.00;;;;;;5018208;28;20467;-46
2021/06/04 12:11:35;;;;;;;18.27;16.50;;;33.10;1.00;;;;;;5019957;28;20474;-49
2021/06/04 12:14:22;;;;;;;19.20;17.60;;;32.80;1.00;;;;;;5019981;28;20462;-48
2021/06/04 12:17:25;;;;;;;17.33;15.87;;;32.70;1.00;;;;;;5020851;28;20489;-46
2021/06/04 12:20:23;;;;;;;16.20;14.90;;;32.60;1.00;;;;;;5021031;28;20471;-48
2021/06/04 12:22:51;;;;;;;21.37;19.73;;;32.90;1.00;;;;;;5020418;28;20469;-55
2021/06/04 12:25:40;;;;;;;25.70;23.70;;;32.10;1.00;;;;;;5018538;28;20474;-48
2021/06/04 12:28:09;;;;;;;21.80;19.80;;;32.30;1.00;;;;;;5019164;28;20478;-46
2021/06/04 12:31:11;;;;;;;19.10;17.43;;;32.80;1.00;;;;;;5012696;28;20900;-45
2021/06/04 12:33:46;;;;;;;18.60;17.30;;;33.30;1.00;;;;;;5019689;28;20454;-45
2021/06/04 12:36:49;;;;;;;18.20;16.77;;;33.40;1.00;;;;;;5018723;28;20490;-48
2021/06/04 12:39:54;;;;;;;17.73;16.30;;;33.90;1.00;;;;;;5013006;28;20466;-52
2021/06/04 12:42:43;;;;;;;18.13;16.83;;;33.80;1.00;;;;;;5019721;28;20458;-48
2021/06/04 12:45:22;;;;;;;19.37;17.63;;;32.20;1.00;;;;;;5020328;28;20831;-47
2021/06/04 12:47:53;;;;;;;18.10;16.70;;;30.80;1.00;;;;;;5019960;28;20470;-50
2021/06/04 12:50:24;;;;;;;17.60;16.30;;;30.30;1.00;;;;;;5019780;28;20464;-50
2021/06/04 12:53:08;;;;;;;19.40;17.97;;;30.10;1.00;;;;;;5020229;28;20461;-49
2021/06/04 12:55:36;;;;;;;19.00;17.50;;;30.30;1.00;;;;;;5020007;28;20466;-49
2021/06/04 12:58:28;;;;;;;17.37;15.80;;;31.00;1.00;;;;;;5019882;28;20463;-49
2021/06/04 13:01:09;;;;;;;20.50;19.03;;;32.10;1.00;;;;;;5012672;28;20996;-48
2021/06/04 13:03:40;;;;;;;19.07;17.67;;;32.90;1.00;;;;;;5012400;28;20502;-47
2021/06/04 13:06:19;;;;;;;21.00;19.30;;;33.10;1.00;;;;;;5018692;28;20460;-49
2021/06/04 13:08:48;;;;;;;18.30;16.80;;;33.20;1.00;;;;;;5019905;28;20876;-45
2021/06/04 13:11:32;;;;;;;17.40;15.90;;;33.30;1.00;;;;;;5019788;28;20449;-51
2021/06/04 13:13:58;;;;;;;19.67;17.83;;;33.50;1.00;;;;;;5018788;28;20517;-50
2021/06/04 13:16:31;;;;;;;19.80;18.30;;;33.50;1.00;;;;;;5019390;28;20467;-50
2021/06/04 13:19:08;;;;;;;17.00;15.60;;;32.30;1.00;;;;;;5020003;28;20895;-48
2021/06/04 13:21:38;;;;;;;21.03;19.43;;;32.80;1.00;;;;;;5018996;28;20884;-55
2021/06/04 13:24:14;;;;;;;19.17;17.77;;;32.00;1.00;;;;;;5019649;28;20933;-54
2021/06/04 13:26:43;;;;;;;18.20;16.27;;;31.60;1.00;;;;;;5019112;28;20880;-53
2021/06/04 13:29:19;;;;;;;17.43;15.93;;;31.90;1.00;;;;;;5019458;28;20464;-48
2021/06/04 13:31:47;;;;;;;17.10;15.60;;;32.50;1.00;;;;;;5019652;28;20470;-52
2021/06/04 13:34:20;;;;;;;16.03;14.73;;;33.30;1.00;;;;;;5018712;28;20901;-52
2021/06/04 13:36:47;;;;;;;18.17;16.67;;;33.80;1.00;;;;;;5019199;28;20463;-53
2021/06/04 13:39:21;;;;;;;18.43;17.13;;;33.60;1.00;;;;;;5018528;28;20775;-51
2021/06/04 13:41:53;;;;;;;19.13;17.53;;;32.40;1.00;;;;;;5018120;28;20557;-51
2021/06/04 13:44:23;;;;;;;19.43;17.77;;;31.90;1.00;;;;;;5017927;28;20788;-48
2021/06/04 13:46:57;;;;;;;37.97;22.10;;;30.70;1.00;;;;;;5018380;28;20463;-54
2021/06/04 13:49:32;;;;;;;19.63;18.10;;;30.90;1.00;;;;;;5018463;28;20466;-50
2021/06/04 13:52:02;;;;;;;20.30;18.60;;;30.40;1.00;;;;;;5018358;28;20814;-45
2021/06/04 13:54:33;;;;;;;19.40;17.80;;;30.50;1.00;;;;;;5018909;28;20755;-45
2021/06/04 13:57:19;;;;;;;18.60;16.70;;;30.60;1.00;;;;;;5018860;28;20468;-45
2021/06/04 13:59:51;;;;;;;19.23;17.53;;;30.20;1.00;;;;;;5018081;28;20496;-47
2021/06/04 14:02:30;;;;;;;18.37;16.47;;;30.00;1.00;;;;;;5018321;28;20447;-48
2021/06/04 14:05:13;;;;;;;18.70;17.30;;;29.00;1.00;;;;;;5010302;28;20496;-48
2021/06/04 14:07:43;;;;;;;19.37;17.57;;;29.00;1.00;;;;;;5013704;28;20806;-50
2021/06/04 14:10:46;;;;;;;19.40;17.73;;;30.10;1.00;;;;;;5016129;28;20464;-45
2021/06/04 14:13:17;;;;;;;19.77;18.17;;;30.50;1.00;;;;;;5016946;28;20534;-47